createdAt,value
2023-03-18T00:03:12.798Z,3.00
2023-03-18T00:07:16.368Z,2.80
2023-03-18T00:11:23.325Z,2.35
2023-03-18T00:15:26.972Z,2.70
2023-03-18T00:19:34.060Z,3.45
2023-03-18T00:23:38.689Z,1.88
2023-03-18T00:27:42.181Z,3.20
2023-03-18T00:31:45.123Z,2.90
2023-03-18T00:35:50.235Z,2.55
2023-03-18T00:39:53.117Z,3.63
2023-03-18T00:43:57.782Z,2.80
2023-03-18T00:48:00.821Z,3.28
2023-03-18T00:52:05.658Z,4.07
2023-03-18T00:56:09.057Z,3.42
2023-03-18T01:00:13.639Z,3.25
2023-03-18T01:04:17.778Z,3.50
2023-03-18T01:08:23.346Z,3.38
2023-03-18T01:12:26.614Z,3.50
2023-03-18T01:16:30.913Z,3.78
2023-03-18T01:20:34.114Z,3.78
2023-03-18T01:24:39.825Z,3.15
2023-03-18T01:28:43.344Z,2.63
2023-03-18T01:32:47.100Z,3.13
2023-03-18T01:36:50.326Z,3.85
2023-03-18T01:40:55.156Z,4.10
2023-03-18T01:45:21.926Z,3.72
2023-03-18T01:49:29.205Z,3.65
2023-03-18T01:53:37.513Z,1.92
2023-03-18T01:57:46.334Z,3.25
2023-03-18T02:01:54.374Z,3.75
2023-03-18T02:05:57.711Z,3.17
2023-03-18T02:10:02.916Z,3.10
2023-03-18T02:14:12.459Z,3.25
2023-03-18T02:18:21.019Z,3.25
2023-03-18T02:22:29.725Z,3.25
2023-03-18T02:26:50.346Z,4.45
2023-03-18T02:30:58.989Z,3.75
2023-03-18T02:35:05.534Z,3.75
2023-03-18T02:39:09.517Z,3.17
2023-03-18T02:43:21.837Z,3.30
2023-03-18T02:47:28.237Z,3.47
2023-03-18T02:51:31.420Z,3.45
2023-03-18T02:55:34.677Z,4.40
2023-03-18T02:59:37.622Z,4.10
2023-03-18T03:03:43.161Z,4.55
2023-03-18T03:07:46.719Z,3.55
2023-03-18T03:11:50.424Z,4.25
2023-03-18T03:15:54.461Z,3.53
2023-03-18T03:19:59.790Z,2.85
2023-03-18T03:24:03.921Z,2.55
2023-03-18T03:28:08.998Z,3.47
2023-03-18T03:32:12.097Z,2.90
2023-03-18T03:36:18.627Z,3.72
2023-03-18T03:40:22.321Z,3.13
2023-03-18T03:44:26.365Z,4.38
2023-03-18T03:48:29.368Z,3.65
2023-03-18T03:52:34.546Z,3.60
2023-03-18T03:56:37.697Z,3.15
2023-03-18T04:00:41.059Z,3.33
2023-03-18T04:04:45.581Z,3.92
2023-03-18T04:08:50.361Z,4.50
2023-03-18T04:12:53.701Z,3.47
2023-03-18T04:16:58.505Z,2.95
2023-03-18T04:21:01.882Z,2.45
2023-03-18T04:25:07.937Z,3.33
2023-03-18T04:29:10.877Z,3.80
2023-03-18T04:33:16.326Z,3.15
2023-03-18T04:37:20.312Z,3.72
2023-03-18T04:41:26.574Z,3.88
2023-03-18T04:45:29.614Z,3.65
2023-03-18T04:49:32.727Z,3.17
2023-03-18T04:53:35.872Z,3.13
2023-03-18T04:57:43.167Z,3.65
2023-03-18T05:01:46.133Z,3.58
2023-03-18T05:05:49.619Z,2.88
2023-03-18T05:09:53.094Z,3.20
2023-03-18T05:13:57.845Z,4.43
2023-03-18T05:18:01.018Z,3.47
2023-03-18T05:22:04.406Z,3.67
2023-03-18T05:26:07.776Z,3.63
2023-03-18T05:30:22.477Z,3.33
2023-03-18T05:34:31.483Z,3.50
2023-03-18T05:38:34.535Z,4.05
2023-03-18T05:42:54.889Z,3.35
2023-03-18T05:47:00.450Z,4.18
2023-03-18T05:51:04.562Z,4.70
2023-03-18T05:55:08.176Z,4.70
2023-03-18T05:59:11.693Z,4.18
2023-03-18T06:03:17.675Z,3.67
2023-03-18T06:07:21.190Z,4.40
2023-03-18T06:11:25.040Z,3.85
2023-03-18T06:15:28.280Z,4.63
2023-03-18T06:19:34.561Z,3.50
2023-03-18T06:23:38.001Z,4.30
2023-03-18T06:27:41.479Z,4.43
2023-03-18T06:31:44.364Z,4.88
2023-03-18T06:35:50.960Z,5.35
2023-03-18T06:39:54.173Z,4.93
2023-03-18T06:43:57.414Z,4.57
2023-03-18T06:48:00.935Z,4.57
2023-03-18T06:52:05.805Z,4.90
2023-03-18T06:56:09.969Z,3.67
2023-03-18T07:00:14.716Z,4.60
2023-03-18T07:04:17.809Z,4.03
2023-03-18T07:08:23.164Z,3.40
2023-03-18T07:12:27.076Z,3.83
2023-03-18T07:16:31.190Z,5.00
2023-03-18T07:20:34.462Z,4.07
2023-03-18T07:24:39.600Z,3.67
2023-03-18T07:28:42.757Z,4.57
2023-03-18T07:32:46.727Z,4.63
2023-03-18T07:36:49.973Z,4.40
2023-03-18T07:40:54.777Z,3.72
2023-03-18T07:44:58.071Z,3.80
2023-03-18T07:49:01.633Z,3.55
2023-03-18T07:53:04.771Z,3.90
2023-03-18T07:57:10.651Z,3.25
2023-03-18T08:01:16.519Z,4.00
2023-03-18T08:05:21.377Z,4.53
2023-03-18T08:09:24.763Z,3.40
2023-03-18T08:13:29.720Z,4.32
2023-03-18T08:17:32.798Z,3.50
2023-03-18T08:21:36.815Z,3.13
2023-03-18T08:25:39.827Z,4.20
2023-03-18T08:29:45.217Z,3.63
2023-03-18T08:33:49.492Z,4.88
2023-03-18T08:37:52.729Z,3.53
2023-03-18T08:41:55.857Z,3.22
2023-03-18T08:46:01.295Z,4.35
2023-03-18T08:50:04.320Z,3.22
2023-03-18T08:54:08.881Z,4.60
2023-03-18T08:58:12.416Z,3.20
2023-03-18T09:02:18.827Z,4.60
2023-03-18T09:06:23.054Z,3.60
2023-03-18T09:10:26.776Z,3.38
2023-03-18T09:14:30.253Z,3.60
2023-03-18T09:18:35.761Z,3.90
2023-03-18T09:22:39.613Z,3.88
2023-03-18T09:26:42.808Z,4.03
2023-03-18T09:30:45.919Z,3.17
2023-03-18T09:34:50.853Z,3.55
2023-03-18T09:38:54.251Z,4.15
2023-03-18T09:43:07.382Z,3.55
2023-03-18T09:47:41.548Z,3.33
2023-03-18T09:51:59.399Z,3.40
2023-03-18T09:56:04.067Z,3.38
2023-03-18T10:00:18.131Z,3.25
2023-03-18T10:04:24.965Z,3.85
2023-03-18T10:08:43.811Z,3.90
2023-03-18T10:12:53.009Z,3.88
2023-03-18T10:17:11.522Z,3.28
2023-03-18T10:21:30.815Z,3.42
2023-03-18T10:25:39.495Z,4.05
2023-03-18T10:29:48.546Z,3.85
2023-03-18T10:33:59.293Z,3.65
2023-03-18T10:38:06.214Z,3.47
2023-03-18T10:42:22.240Z,4.10
2023-03-18T10:46:28.415Z,4.53
2023-03-18T10:50:37.429Z,4.50
2023-03-18T10:54:42.678Z,3.72
2023-03-18T10:58:47.964Z,4.53
2023-03-18T11:02:51.435Z,4.47
2023-03-18T11:06:59.472Z,4.18
2023-03-18T11:11:34.827Z,4.40
2023-03-18T11:15:50.567Z,4.15
2023-03-18T11:20:05.903Z,4.57
2023-03-18T11:24:36.623Z,4.50
2023-03-18T11:28:43.250Z,3.95
2023-03-18T11:32:56.679Z,4.65
2023-03-18T11:37:04.853Z,4.20
2023-03-18T11:41:10.065Z,4.50
2023-03-18T11:45:33.056Z,5.22
2023-03-18T11:49:38.843Z,4.55
2023-03-18T11:53:53.786Z,4.68
2023-03-18T11:58:24.382Z,4.47
2023-03-18T12:02:45.363Z,4.45
2023-03-18T12:07:06.055Z,4.43
2023-03-18T12:11:14.842Z,4.97
2023-03-18T12:15:27.561Z,4.55
2023-03-18T12:24:05.958Z,5.55
2023-03-18T12:28:23.944Z,4.55
2023-03-18T12:32:33.709Z,5.90
2023-03-18T12:36:50.267Z,5.47
2023-03-18T12:41:07.994Z,4.65
2023-03-18T12:45:14.838Z,5.30
2023-03-18T12:49:22.699Z,4.97
2023-03-18T12:53:31.288Z,5.43
2023-03-18T12:57:43.286Z,5.97
2023-03-18T13:01:54.791Z,6.13
2023-03-18T13:06:02.441Z,5.05
2023-03-18T13:10:19.849Z,5.80
2023-03-18T13:14:33.470Z,6.38
2023-03-18T13:18:43.682Z,4.97
2023-03-18T13:23:14.406Z,5.65
2023-03-18T13:27:53.262Z,6.18
2023-03-18T13:32:09.589Z,6.00
2023-03-18T13:36:23.787Z,6.32
2023-03-18T13:40:42.971Z,5.95
2023-03-18T13:44:53.115Z,5.93
2023-03-18T13:49:00.121Z,5.80
2023-03-18T13:53:04.952Z,6.25
2023-03-18T13:57:36.920Z,5.75
2023-03-18T14:01:49.727Z,4.97
2023-03-18T14:06:23.705Z,5.82
2023-03-18T14:10:26.732Z,5.53
2023-03-18T14:14:57.246Z,5.82
2023-03-18T14:19:04.112Z,5.95
2023-03-18T14:23:44.697Z,7.55
2023-03-18T14:27:52.572Z,5.47
2023-03-18T14:31:59.726Z,7.15
2023-03-18T14:36:09.791Z,6.03
2023-03-18T14:40:18.179Z,6.32
2023-03-18T14:44:29.183Z,7.05
2023-03-18T14:48:35.077Z,5.38
2023-03-18T14:52:41.946Z,6.18
2023-03-18T14:56:54.935Z,5.72
2023-03-18T15:01:06.521Z,6.63
2023-03-18T15:05:15.426Z,6.57
2023-03-18T15:09:23.598Z,5.95
2023-03-18T15:13:27.713Z,6.50
2023-03-18T15:17:32.472Z,6.65
2023-03-18T15:21:36.794Z,5.55
2023-03-18T15:25:43.220Z,6.03
2023-03-18T15:29:50.234Z,6.00
2023-03-18T15:34:06.732Z,6.18
2023-03-18T15:38:19.030Z,6.05
2023-03-18T15:42:23.082Z,6.80
2023-03-18T15:46:28.972Z,7.00
2023-03-18T15:50:35.075Z,6.93
2023-03-18T15:54:42.302Z,5.65
2023-03-18T15:58:47.816Z,7.22
2023-03-18T16:02:51.347Z,6.28
2023-03-18T16:06:56.304Z,5.97
2023-03-18T16:11:04.493Z,5.57
2023-03-18T16:15:10.344Z,5.97
2023-03-18T16:19:25.158Z,6.75
2023-03-18T16:23:30.487Z,6.13
2023-03-18T16:27:38.822Z,6.38
2023-03-18T16:31:42.121Z,7.43
2023-03-18T16:35:47.285Z,7.63
2023-03-18T16:39:52.145Z,7.00
2023-03-18T16:43:56.168Z,6.88
2023-03-18T16:48:02.463Z,7.43
2023-03-18T16:52:06.134Z,5.88
2023-03-18T16:56:17.793Z,6.57
2023-03-18T17:00:24.616Z,6.53
2023-03-18T17:04:30.909Z,6.38
2023-03-18T17:08:34.316Z,6.82
2023-03-18T17:12:40.403Z,6.80
2023-03-18T17:16:43.924Z,6.72
2023-03-18T17:20:48.179Z,6.45
2023-03-18T17:24:51.272Z,6.18
2023-03-18T17:28:56.703Z,6.45
2023-03-18T17:32:59.932Z,6.05
2023-03-18T17:37:04.442Z,6.03
2023-03-18T17:41:16.073Z,5.57
2023-03-18T17:45:29.677Z,6.20
2023-03-18T17:49:51.515Z,5.38
2023-03-18T17:53:58.986Z,6.65
2023-03-18T17:58:02.530Z,6.18
2023-03-18T18:02:13.514Z,6.43
2023-03-18T18:06:19.369Z,5.65
2023-03-18T18:10:22.320Z,6.22
2023-03-18T18:14:31.734Z,6.43
2023-03-18T18:18:38.687Z,6.15
2023-03-18T18:22:46.714Z,6.93
2023-03-18T18:26:49.838Z,7.20
2023-03-18T18:30:53.188Z,6.38
2023-03-18T18:34:58.010Z,5.85
2023-03-18T18:39:02.251Z,6.70
2023-03-18T18:43:05.762Z,5.78
2023-03-18T18:47:18.945Z,6.80
2023-03-18T18:51:25.434Z,5.65
2023-03-18T18:55:28.824Z,6.22
2023-03-18T18:59:34.266Z,5.70
2023-03-18T19:03:37.889Z,5.45
2023-03-18T19:07:42.828Z,6.60
2023-03-18T19:11:46.647Z,7.32
2023-03-18T19:15:51.392Z,6.30
2023-03-18T19:19:55.249Z,5.78
2023-03-18T19:24:02.332Z,6.15
2023-03-18T19:28:06.537Z,7.40
2023-03-18T19:32:15.886Z,6.15
2023-03-18T19:36:26.660Z,5.72
2023-03-18T19:40:32.107Z,4.38
2023-03-18T19:44:36.026Z,6.53
2023-03-18T19:48:39.248Z,5.97
2023-03-18T19:52:42.841Z,5.93
2023-03-18T19:56:48.690Z,6.30
2023-03-18T20:00:53.843Z,6.38
2023-03-18T20:04:59.664Z,5.07
2023-03-18T20:09:03.066Z,6.72
2023-03-18T20:13:08.387Z,5.80
2023-03-18T20:17:38.678Z,5.63
2023-03-18T20:21:42.312Z,5.47
2023-03-18T20:25:47.593Z,5.85
2023-03-18T20:29:52.537Z,6.10
2023-03-18T20:33:56.059Z,6.38
2023-03-18T20:38:02.025Z,5.32
2023-03-18T20:42:05.666Z,5.05
2023-03-18T20:46:14.200Z,5.82
2023-03-18T20:50:19.613Z,4.95
2023-03-18T20:54:30.543Z,4.72
2023-03-18T20:58:33.974Z,5.78
2023-03-18T21:02:39.220Z,5.13
2023-03-18T21:06:43.474Z,5.95
2023-03-18T21:10:47.547Z,4.72
2023-03-18T21:14:50.666Z,5.25
2023-03-18T21:18:55.425Z,4.07
2023-03-18T21:22:58.324Z,4.75
2023-03-18T21:27:05.065Z,4.82
2023-03-18T21:31:22.609Z,4.68
2023-03-18T21:35:29.491Z,4.25
2023-03-18T21:39:33.695Z,5.28
2023-03-18T21:43:38.717Z,5.57
2023-03-18T21:47:42.273Z,4.82
2023-03-18T21:51:47.247Z,4.75
2023-03-18T21:55:53.217Z,5.15
2023-03-18T21:59:59.225Z,4.93
2023-03-18T22:04:02.921Z,5.60
2023-03-18T22:08:07.798Z,6.53
2023-03-18T22:12:14.485Z,6.93
2023-03-18T22:16:19.545Z,4.78
2023-03-18T22:20:23.358Z,5.43
2023-03-18T22:24:27.977Z,5.43
2023-03-18T22:28:32.512Z,5.78
2023-03-18T22:32:40.786Z,6.38
2023-03-18T22:36:43.794Z,4.15
2023-03-18T22:40:50.540Z,4.78
2023-03-18T22:44:53.730Z,5.07
2023-03-18T22:49:00.189Z,5.13
2023-03-18T22:53:06.662Z,5.45
2023-03-18T22:57:18.132Z,5.65
2023-03-18T23:01:24.870Z,5.90
2023-03-18T23:05:28.148Z,5.40
2023-03-18T23:09:31.784Z,5.93
2023-03-18T23:13:38.788Z,5.78
2023-03-18T23:17:42.606Z,5.95
2023-03-18T23:21:46.073Z,6.03
2023-03-18T23:25:50.174Z,5.68
2023-03-18T23:29:55.676Z,6.32
2023-03-18T23:33:58.621Z,6.15
2023-03-18T23:38:02.311Z,5.88
2023-03-18T23:42:06.321Z,5.43
2023-03-18T23:46:11.371Z,5.80
2023-03-18T23:50:14.530Z,5.80
2023-03-18T23:54:17.837Z,5.70
2023-03-18T23:58:20.948Z,5.72
